Time;durP1;ratioP1;P1;durP2;ratioP2;P2;SDS_P1;SDS_P2;PMS_P1;PMS_P2;Temp;Humidity;BMP_temperature;BMP_pressure;BME280_temperature;BME280_humidity;BME280_pressure;Samples;Min_cycle;Max_cycle;Signal;HPM_P1;HPM_P2
2021/01/10 00:00:44;;;;;;;64.00;39.60;;;-2.40;93.80;;;;;;5032283;28;20894;-86
2021/01/10 00:03:13;;;;;;;57.47;37.53;;;-2.40;93.80;;;;;;5037463;28;20481;-86
2021/01/10 00:05:41;;;;;;;63.72;39.58;;;-2.40;93.70;;;;;;5052431;28;20405;-86
2021/01/10 00:08:08;;;;;;;60.33;38.40;;;-2.50;93.70;;;;;;5032452;28;20479;-86
2021/01/10 00:10:37;;;;;;;58.25;37.45;;;-2.50;93.80;;;;;;5052190;28;20470;-86
2021/01/10 00:13:05;;;;;;;56.65;36.30;;;-2.60;94.00;;;;;;5032970;28;20413;-85
2021/01/10 00:15:32;;;;;;;53.95;34.45;;;-2.60;93.90;;;;;;5054310;28;20465;-86
2021/01/10 00:17:59;;;;;;;51.40;33.60;;;-2.50;93.90;;;;;;5071871;28;20503;-86
2021/01/10 00:20:28;;;;;;;51.55;33.95;;;-2.60;93.90;;;;;;5033700;28;20437;-86
2021/01/10 00:22:59;;;;;;;53.27;33.73;;;-2.70;93.90;;;;;;5034631;28;20402;-86
2021/01/10 00:25:25;;;;;;;50.72;33.17;;;-2.70;93.90;;;;;;5017802;28;21194;-85
2021/01/10 00:27:52;;;;;;;48.78;31.90;;;-2.70;93.70;;;;;;5014600;28;20469;-87
2021/01/10 00:30:22;;;;;;;50.45;33.75;;;-2.70;93.70;;;;;;5042350;28;20794;-86
2021/01/10 00:32:53;;;;;;;50.57;33.67;;;-2.70;93.80;;;;;;5051829;28;20413;-87
2021/01/10 00:35:23;;;;;;;53.42;35.85;;;-2.80;94.00;;;;;;5040801;28;20426;-87
2021/01/10 00:37:53;;;;;;;57.25;37.30;;;-2.70;94.10;;;;;;5014133;28;20461;-86
2021/01/10 00:40:21;;;;;;;62.67;38.53;;;-2.80;94.20;;;;;;5037079;28;20410;-84
2021/01/10 00:42:50;;;;;;;64.10;40.10;;;-2.70;94.40;;;;;;5034076;28;20499;-86
2021/01/10 00:45:18;;;;;;;64.03;40.63;;;-2.70;94.40;;;;;;5028940;28;20800;-85
2021/01/10 00:47:45;;;;;;;66.00;40.78;;;-2.80;94.50;;;;;;5014272;28;20469;-85
2021/01/10 00:50:14;;;;;;;65.35;40.92;;;-2.80;94.50;;;;;;5013859;28;20402;-86
2021/01/10 00:52:41;;;;;;;61.03;38.70;;;-2.90;94.70;;;;;;5036496;28;20443;-87
2021/01/10 00:55:08;;;;;;;63.33;39.33;;;-2.90;94.60;;;;;;5037912;28;20402;-88
2021/01/10 00:57:35;;;;;;;66.10;40.20;;;-2.90;94.50;;;;;;5053322;28;20413;-87
2021/01/10 01:00:08;;;;;;;62.45;38.00;;;-3.00;94.50;;;;;;5037672;28;20397;-88
2021/01/10 01:02:35;;;;;;;66.18;37.75;;;-3.00;94.40;;;;;;5052818;28;20433;-88
2021/01/10 01:05:01;;;;;;;55.63;35.00;;;-2.90;94.40;;;;;;5037593;28;20397;-87
2021/01/10 01:07:28;;;;;;;58.85;36.35;;;-3.00;94.50;;;;;;5040785;28;20419;-88
2021/01/10 01:09:57;;;;;;;58.28;35.92;;;-3.10;94.60;;;;;;5035376;28;20407;-87
2021/01/10 01:12:26;;;;;;;61.08;35.63;;;-3.10;94.60;;;;;;5043133;28;20513;-88
2021/01/10 01:14:53;;;;;;;60.20;36.23;;;-3.00;94.80;;;;;;5055255;28;20455;-87
2021/01/10 01:17:19;;;;;;;62.45;37.30;;;-3.00;94.50;;;;;;5029128;28;20480;-88
2021/01/10 01:19:46;;;;;;;60.88;35.92;;;-3.00;94.60;;;;;;5017806;28;20438;-86
2021/01/10 01:22:13;;;;;;;59.47;35.42;;;-3.00;94.50;;;;;;5049573;28;20483;-86
2021/01/10 01:24:39;;;;;;;62.65;36.38;;;-2.90;94.60;;;;;;5037213;28;20405;-86
2021/01/10 01:27:06;;;;;;;60.03;35.88;;;-2.90;94.50;;;;;;5054494;28;20417;-87
2021/01/10 01:29:32;;;;;;;60.37;36.50;;;-2.80;94.40;;;;;;5052744;28;20441;-88
2021/01/10 01:31:59;;;;;;;59.17;35.83;;;-2.80;94.50;;;;;;5054620;28;20509;-88
2021/01/10 01:34:25;;;;;;;58.38;35.80;;;-2.70;94.30;;;;;;5049609;28;20472;-88
2021/01/10 01:36:54;;;;;;;54.28;34.30;;;-2.70;94.20;;;;;;5056568;28;20404;-88
2021/01/10 01:39:20;;;;;;;56.85;34.33;;;-2.70;94.20;;;;;;5041624;28;20406;-89
2021/01/10 01:41:49;;;;;;;57.13;34.07;;;-2.70;94.10;;;;;;5036997;28;20425;-88
2021/01/10 01:44:16;;;;;;;58.38;35.22;;;-2.60;94.10;;;;;;5052468;28;20467;-89
2021/01/10 01:46:43;;;;;;;58.97;34.97;;;-2.70;94.00;;;;;;5054387;28;20475;-88
2021/01/10 01:49:11;;;;;;;59.65;34.67;;;-2.80;94.10;;;;;;5034377;28;20783;-89
2021/01/10 01:51:39;;;;;;;62.63;36.00;;;-2.80;94.20;;;;;;5036899;28;21234;-89
2021/01/10 01:54:06;;;;;;;61.80;35.47;;;-2.70;94.20;;;;;;5034842;28;20409;-88
2021/01/10 01:56:34;;;;;;;57.70;35.75;;;-2.70;94.20;;;;;;5036576;28;21087;-89
2021/01/10 01:59:05;;;;;;;57.38;35.25;;;-2.80;94.30;;;;;;5052387;28;20414;-88
2021/01/10 02:01:34;;;;;;;55.90;34.70;;;-2.80;94.40;;;;;;5016572;28;20762;-88
2021/01/10 02:04:14;;;;;;;54.08;33.78;;;-2.80;94.40;;;;;;5016573;28;20406;-88
2021/01/10 02:06:47;;;;;;;52.63;33.05;;;-2.80;94.40;;;;;;5035356;28;20426;-87
2021/01/10 02:09:15;;;;;;;52.50;34.03;;;-2.80;94.30;;;;;;5036386;28;20410;-87
2021/01/10 02:11:46;;;;;;;54.17;35.53;;;-2.90;94.00;;;;;;5051878;28;20479;-87
2021/01/10 02:14:17;;;;;;;54.72;34.75;;;-2.80;94.10;;;;;;5036793;28;20405;-88
2021/01/10 02:16:44;;;;;;;55.42;34.97;;;-2.90;94.20;;;;;;5033600;28;20482;-87
2021/01/10 02:19:32;;;;;;;54.50;34.95;;;-3.00;94.20;;;;;;5036257;28;20413;-87
2021/01/10 02:22:05;;;;;;;53.92;35.13;;;-3.00;94.20;;;;;;5066217;28;20478;-88
2021/01/10 02:24:34;;;;;;;56.63;35.70;;;-3.00;94.40;;;;;;5036382;28;20406;-88
2021/01/10 02:27:04;;;;;;;54.13;34.63;;;-3.00;94.40;;;;;;5033947;28;20532;-87
2021/01/10 02:29:33;;;;;;;53.35;34.53;;;-3.00;94.50;;;;;;5053495;28;20406;-87
2021/01/10 02:32:02;;;;;;;53.58;35.38;;;-3.00;94.50;;;;;;5051648;28;20440;-88
2021/01/10 02:34:32;;;;;;;55.37;36.00;;;-3.00;94.40;;;;;;5035828;28;20421;-88
2021/01/10 02:36:58;;;;;;;55.88;36.10;;;-2.90;94.50;;;;;;5033751;28;20495;-88
2021/01/10 02:39:50;;;;;;;57.70;37.63;;;-2.90;94.60;;;;;;5035423;28;20452;-87
2021/01/10 02:42:43;;;;;;;56.22;36.42;;;-3.00;94.50;;;;;;5032930;28;20453;-86
2021/01/10 02:45:14;;;;;;;57.22;36.60;;;-3.00;94.50;;;;;;5035737;28;21084;-86
2021/01/10 02:47:43;;;;;;;54.47;35.63;;;-3.00;94.60;;;;;;5051179;28;20808;-86
2021/01/10 02:50:17;;;;;;;53.80;34.37;;;-3.00;94.40;;;;;;5035817;28;20460;-86
2021/01/10 02:52:50;;;;;;;54.20;35.17;;;-3.00;94.30;;;;;;5052031;28;20763;-86
2021/01/10 02:55:17;;;;;;;54.05;36.05;;;-3.00;94.40;;;;;;5035315;28;20425;-86
2021/01/10 02:57:53;;;;;;;52.83;33.78;;;-3.00;94.40;;;;;;5050955;28;20430;-86
2021/01/10 03:00:22;;;;;;;53.67;34.65;;;-2.90;94.30;;;;;;5035363;28;20453;-86
2021/01/10 03:02:53;;;;;;;52.60;34.65;;;-2.90;94.30;;;;;;5033346;28;20421;-85
2021/01/10 03:05:22;;;;;;;52.33;34.08;;;-3.00;94.30;;;;;;5035279;28;20482;-86
2021/01/10 03:07:49;;;;;;;51.95;33.83;;;-3.00;94.50;;;;;;5033775;28;20444;-85
2021/01/10 03:10:17;;;;;;;54.22;34.13;;;-2.90;94.50;;;;;;5034665;28;20417;-86
2021/01/10 03:12:44;;;;;;;50.55;33.45;;;-3.00;94.50;;;;;;5035297;28;20504;-87
2021/01/10 03:15:11;;;;;;;50.55;33.13;;;-2.90;94.40;;;;;;5032363;28;20421;-87
2021/01/10 03:17:46;;;;;;;51.53;34.13;;;-2.90;94.30;;;;;;5052930;28;20413;-87
2021/01/10 03:20:15;;;;;;;52.20;34.42;;;-2.90;94.30;;;;;;5033999;28;20430;-87
2021/01/10 03:22:44;;;;;;;55.35;35.65;;;-3.00;94.30;;;;;;5054973;28;20423;-88
2021/01/10 03:25:13;;;;;;;58.92;36.72;;;-2.90;94.30;;;;;;5039459;28;20409;-88
2021/01/10 03:27:42;;;;;;;56.90;37.45;;;-2.90;94.40;;;;;;5052564;28;20413;-88
2021/01/10 03:30:10;;;;;;;56.85;36.97;;;-3.00;94.50;;;;;;5032914;28;20551;-88
2021/01/10 03:32:38;;;;;;;56.65;36.13;;;-3.00;94.50;;;;;;5035407;28;20401;-88
2021/01/10 03:35:06;;;;;;;53.88;36.95;;;-3.00;94.50;;;;;;5032118;28;20432;-88
2021/01/10 03:37:34;;;;;;;57.35;37.78;;;-3.00;94.50;;;;;;5052380;28;20401;-88
2021/01/10 03:40:01;;;;;;;58.42;37.92;;;-3.00;94.50;;;;;;5050255;28;20905;-88
2021/01/10 03:42:28;;;;;;;61.13;39.17;;;-3.10;94.50;;;;;;5034478;28;20424;-88
2021/01/10 03:44:57;;;;;;;59.58;38.67;;;-3.00;94.50;;;;;;5051125;28;20417;-88
2021/01/10 03:47:24;;;;;;;59.28;37.00;;;-3.00;94.40;;;;;;5014909;28;20526;-88
2021/01/10 03:49:51;;;;;;;63.00;38.75;;;-3.00;94.30;;;;;;5032276;28;20403;-86
2021/01/10 03:52:18;;;;;;;60.80;39.40;;;-3.10;94.40;;;;;;5015256;28;20818;-86
2021/01/10 03:54:45;;;;;;;62.80;40.38;;;-3.10;94.50;;;;;;5014804;28;20416;-86
2021/01/10 03:57:11;;;;;;;63.10;40.28;;;-3.20;94.50;;;;;;5058141;28;20400;-87
2021/01/10 03:59:38;;;;;;;63.63;40.90;;;-3.10;94.50;;;;;;5054412;28;20500;-86
2021/01/10 04:02:05;;;;;;;72.18;44.50;;;-3.10;94.60;;;;;;5041432;28;20452;-86
2021/01/10 04:04:32;;;;;;;79.40;47.25;;;-3.10;94.80;;;;;;5052494;28;21269;-86
2021/01/10 04:06:59;;;;;;;78.13;47.42;;;-3.10;95.10;;;;;;5032454;28;20402;-86
2021/01/10 04:09:25;;;;;;;82.22;48.88;;;-3.10;95.20;;;;;;5034627;28;20394;-87
2021/01/10 04:11:52;;;;;;;85.60;50.22;;;-3.10;95.30;;;;;;5053423;28;20408;-87
2021/01/10 04:14:20;;;;;;;83.63;49.93;;;-3.10;95.40;;;;;;5072012;28;21031;-87
2021/01/10 04:16:51;;;;;;;82.78;49.22;;;-3.10;95.30;;;;;;5069381;28;20403;-87
2021/01/10 04:19:18;;;;;;;81.43;49.03;;;-3.00;95.30;;;;;;5054333;28;20402;-87
2021/01/10 04:21:47;;;;;;;83.97;48.87;;;-3.00;95.10;;;;;;5072074;28;20423;-87
2021/01/10 04:24:14;;;;;;;79.05;47.83;;;-3.00;95.10;;;;;;5032751;28;20491;-88
2021/01/10 04:26:48;;;;;;;77.75;46.88;;;-3.10;95.10;;;;;;5036851;28;20405;-87
2021/01/10 04:29:19;;;;;;;74.35;44.65;;;-3.10;95.00;;;;;;5023835;28;20423;-87
2021/01/10 04:31:47;;;;;;;68.50;43.30;;;-3.10;94.90;;;;;;5036228;28;20414;-87
2021/01/10 04:34:17;;;;;;;73.07;44.17;;;-3.10;94.70;;;;;;5003409;28;20408;-87
2021/01/10 04:36:44;;;;;;;70.05;44.13;;;-3.10;94.80;;;;;;4998523;28;20412;-87
2021/01/10 04:39:14;;;;;;;74.25;43.50;;;-3.10;94.90;;;;;;5008167;28;20415;-87
2021/01/10 04:41:44;;;;;;;80.32;45.95;;;-3.00;94.80;;;;;;5035939;28;20423;-87
2021/01/10 04:44:13;;;;;;;72.40;43.88;;;-3.00;94.90;;;;;;5033863;28;20419;-87
2021/01/10 04:46:41;;;;;;;73.70;44.60;;;-3.00;94.80;;;;;;5035707;28;20427;-88
2021/01/10 04:49:09;;;;;;;78.32;47.35;;;-3.00;94.70;;;;;;5016031;28;20407;-88
2021/01/10 04:51:38;;;;;;;79.68;47.25;;;-3.00;94.80;;;;;;5018301;28;20410;-88
2021/01/10 04:54:09;;;;;;;78.93;47.88;;;-3.00;94.90;;;;;;5033397;28;20505;-87
2021/01/10 04:56:37;;;;;;;74.28;45.70;;;-3.00;94.90;;;;;;5017956;28;20403;-87
2021/01/10 04:59:04;;;;;;;74.90;45.38;;;-2.90;94.80;;;;;;5017570;28;20406;-86
2021/01/10 05:01:36;;;;;;;74.88;45.55;;;-2.90;94.70;;;;;;5016893;28;20430;-86
2021/01/10 05:04:04;;;;;;;77.55;45.65;;;-2.90;94.70;;;;;;5035315;28;20478;-87
2021/01/10 05:06:34;;;;;;;83.50;49.07;;;-2.90;95.00;;;;;;5033281;28;20492;-87
2021/01/10 05:09:04;;;;;;;94.65;51.78;;;-2.90;94.70;;;;;;5017787;28;20422;-87
2021/01/10 05:11:31;;;;;;;91.45;52.67;;;-2.90;94.80;;;;;;5001311;28;20862;-87
2021/01/10 05:13:57;;;;;;;93.67;53.30;;;-2.90;94.90;;;;;;4998339;28;20499;-88
2021/01/10 05:16:32;;;;;;;94.22;53.67;;;-2.90;95.20;;;;;;5025438;28;20881;-87
2021/01/10 05:19:02;;;;;;;89.18;52.00;;;-3.00;95.30;;;;;;5034794;28;20514;-87
2021/01/10 05:21:29;;;;;;;89.82;53.28;;;-2.90;95.40;;;;;;5032393;28;20936;-87
2021/01/10 05:23:57;;;;;;;82.53;49.10;;;-2.90;95.30;;;;;;5035154;28;20406;-88
2021/01/10 05:26:34;;;;;;;88.38;49.92;;;-2.90;95.10;;;;;;5015341;28;20465;-88
2021/01/10 05:29:10;;;;;;;86.13;49.55;;;-2.80;95.00;;;;;;5036815;28;20413;-88
2021/01/10 05:31:41;;;;;;;89.88;52.00;;;-2.80;94.90;;;;;;5035674;28;20409;-88
2021/01/10 05:34:26;;;;;;;87.35;50.58;;;-2.80;94.90;;;;;;5036817;28;20402;-88
2021/01/10 05:36:54;;;;;;;86.63;50.30;;;-2.80;94.90;;;;;;5035315;28;20402;-87
2021/01/10 05:39:25;;;;;;;106.07;55.77;;;-2.80;95.00;;;;;;5054215;28;20417;-88
2021/01/10 05:41:56;;;;;;;103.55;55.95;;;-2.80;95.20;;;;;;5034974;28;20425;-88
2021/01/10 05:44:27;;;;;;;104.95;58.03;;;-2.90;95.40;;;;;;5037289;28;20502;-89
2021/01/10 05:47:05;;;;;;;112.25;59.42;;;-2.90;95.60;;;;;;5035253;28;20405;-88
2021/01/10 05:49:32;;;;;;;128.02;63.13;;;-2.90;95.70;;;;;;5037114;28;20397;-88
2021/01/10 05:52:09;;;;;;;118.28;61.10;;;-3.00;95.80;;;;;;5036805;28;20402;-87
2021/01/10 05:54:40;;;;;;;127.33;61.67;;;-2.90;96.10;;;;;;5016863;28;20419;-87
2021/01/10 05:57:11;;;;;;;115.60;61.40;;;-2.90;96.20;;;;;;5016804;28;20442;-88
2021/01/10 05:59:49;;;;;;;107.50;58.63;;;-2.90;96.20;;;;;;5050502;28;20416;-87
2021/01/10 06:02:29;;;;;;;107.72;58.78;;;-2.90;96.10;;;;;;5035898;28;20795;-88
2021/01/10 06:05:18;;;;;;;100.18;56.05;;;-3.00;96.10;;;;;;5015954;28;20482;-88
2021/01/10 06:07:47;;;;;;;83.20;49.22;;;-2.90;96.00;;;;;;5033977;28;20407;-89
2021/01/10 06:10:28;;;;;;;87.05;51.10;;;-2.90;95.90;;;;;;5049987;28;20409;-88
2021/01/10 06:13:06;;;;;;;88.63;51.60;;;-2.90;95.60;;;;;;5036167;28;20421;-86
2021/01/10 06:15:34;;;;;;;88.65;51.13;;;-3.00;95.70;;;;;;5034583;28;20414;-86
2021/01/10 06:18:04;;;;;;;87.07;50.67;;;-2.90;95.80;;;;;;5036879;28;20855;-86
2021/01/10 06:20:34;;;;;;;82.00;48.83;;;-3.00;95.60;;;;;;5033954;28;20409;-86
2021/01/10 06:23:05;;;;;;;86.05;49.78;;;-2.90;95.70;;;;;;5036356;28;20974;-86
2021/01/10 06:25:40;;;;;;;89.63;51.90;;;-2.90;95.70;;;;;;5034074;28;20799;-86
2021/01/10 06:28:18;;;;;;;91.22;51.83;;;-2.80;95.70;;;;;;5052579;28;20449;-87
2021/01/10 06:30:55;;;;;;;92.32;52.47;;;-2.90;95.50;;;;;;5034101;28;20417;-87
2021/01/10 06:33:29;;;;;;;87.13;49.80;;;-2.90;95.50;;;;;;5036054;28;20449;-87
2021/01/10 06:36:07;;;;;;;90.88;51.78;;;-2.90;95.50;;;;;;5051427;28;20424;-89
2021/01/10 06:38:36;;;;;;;89.53;51.75;;;-2.80;95.40;;;;;;5053627;28;20409;-89
2021/01/10 06:41:24;;;;;;;93.68;52.40;;;-2.90;95.50;;;;;;5044321;28;20489;-89
2021/01/10 06:44:00;;;;;;;88.43;51.10;;;-2.80;95.40;;;;;;5073252;28;21090;-89
2021/01/10 06:46:29;;;;;;;86.75;50.03;;;-2.80;95.50;;;;;;5042447;28;20959;-89
2021/01/10 06:48:56;;;;;;;87.95;50.28;;;-2.80;95.40;;;;;;5035394;28;20418;-89
2021/01/10 06:51:27;;;;;;;89.63;51.10;;;-2.70;95.30;;;;;;5026195;28;20930;-88
2021/01/10 06:53:55;;;;;;;89.90;51.67;;;-2.70;95.30;;;;;;5015885;28;20430;-89
2021/01/10 06:56:24;;;;;;;93.70;52.83;;;-2.70;95.30;;;;;;5015226;28;21181;-89
2021/01/10 06:59:21;;;;;;;89.88;51.35;;;-2.70;95.20;;;;;;5015802;28;20463;-90
2021/01/10 07:01:51;;;;;;;84.45;50.13;;;-2.60;95.20;;;;;;5048065;28;20429;-86
2021/01/10 07:04:54;;;;;;;89.47;53.37;;;-2.60;95.20;;;;;;5035793;28;20404;-86
2021/01/10 07:07:37;;;;;;;85.40;50.45;;;-2.60;95.00;;;;;;5009171;28;20413;-86
2021/01/10 07:10:09;;;;;;;85.80;49.97;;;-2.60;94.80;;;;;;5052205;28;20507;-86
2021/01/10 07:12:38;;;;;;;84.70;51.38;;;-2.60;94.90;;;;;;5032041;28;20409;-86
2021/01/10 07:15:26;;;;;;;89.43;53.00;;;-2.60;94.80;;;;;;5034862;28;20421;-86
2021/01/10 07:18:08;;;;;;;91.47;54.20;;;-2.60;94.90;;;;;;5032682;28;20413;-86
2021/01/10 07:20:40;;;;;;;89.73;51.73;;;-2.60;95.00;;;;;;5034299;28;20817;-86
2021/01/10 07:23:30;;;;;;;92.43;53.27;;;-2.60;95.00;;;;;;5031615;28;20483;-86
2021/01/10 07:25:58;;;;;;;88.47;52.70;;;-2.60;95.10;;;;;;5052161;28;20441;-86
2021/01/10 07:28:43;;;;;;;88.30;52.47;;;-2.60;95.00;;;;;;5049198;28;20779;-87
2021/01/10 07:31:15;;;;;;;94.63;54.60;;;-2.60;95.10;;;;;;5034927;28;20397;-86
2021/01/10 07:33:42;;;;;;;90.30;52.90;;;-2.60;95.20;;;;;;5049699;28;20432;-87
2021/01/10 07:36:10;;;;;;;89.15;52.42;;;-2.60;95.20;;;;;;5051847;28;20467;-86
2021/01/10 07:38:40;;;;;;;88.13;51.97;;;-2.50;95.20;;;;;;5045856;28;20407;-87
2021/01/10 07:41:27;;;;;;;91.57;53.28;;;-2.50;95.00;;;;;;5032331;28;20511;-86
2021/01/10 07:43:56;;;;;;;88.65;51.63;;;-2.40;94.90;;;;;;5016511;28;20664;-86
2021/01/10 07:46:54;;;;;;;91.25;52.50;;;-2.40;94.80;;;;;;5051901;28;20405;-88
2021/01/10 07:49:27;;;;;;;85.40;50.78;;;-2.30;95.10;;;;;;5032568;28;20453;-88
2021/01/10 07:51:54;;;;;;;81.25;49.05;;;-2.20;94.70;;;;;;5052069;28;20411;-88
2021/01/10 07:54:52;;;;;;;82.25;50.17;;;-2.20;94.50;;;;;;5032363;28;20413;-87
2021/01/10 07:57:25;;;;;;;85.28;51.13;;;-2.20;94.30;;;;;;5034615;28;21048;-88
2021/01/10 08:00:14;;;;;;;86.47;51.65;;;-2.20;94.30;;;;;;5028220;28;20468;-88
2021/01/10 08:02:54;;;;;;;87.28;51.38;;;-2.20;94.40;;;;;;5035968;28;20423;-87
2021/01/10 08:05:31;;;;;;;90.40;52.83;;;-2.20;94.40;;;;;;5040102;28;20614;-88
2021/01/10 08:07:59;;;;;;;88.10;52.07;;;-2.20;94.50;;;;;;5039223;28;20393;-88
2021/01/10 08:10:40;;;;;;;90.22;54.58;;;-2.00;94.50;;;;;;5036127;28;20813;-87
2021/01/10 08:13:29;;;;;;;82.82;50.92;;;-1.90;94.30;;;;;;5038339;28;20444;-87
2021/01/10 08:16:00;;;;;;;86.38;51.80;;;-1.90;93.80;;;;;;5047945;28;20430;-87
2021/01/10 08:18:33;;;;;;;87.05;52.22;;;-1.70;93.20;;;;;;5019152;28;20864;-87
2021/01/10 08:21:02;;;;;;;84.20;51.85;;;-1.90;93.60;;;;;;5028832;28;21223;-87
2021/01/10 08:23:32;;;;;;;88.20;53.45;;;-1.90;94.00;;;;;;5055631;28;20421;-86
2021/01/10 08:26:08;;;;;;;92.68;54.15;;;-1.90;94.00;;;;;;5036165;28;20724;-86
2021/01/10 08:28:38;;;;;;;92.20;53.38;;;-1.80;94.30;;;;;;5055517;28;20409;-86
2021/01/10 08:31:08;;;;;;;94.53;54.55;;;-1.90;94.30;;;;;;5054111;28;20443;-86
2021/01/10 08:33:35;;;;;;;107.10;57.92;;;-1.80;94.20;;;;;;5037335;28;20426;-87
2021/01/10 08:36:21;;;;;;;114.97;59.45;;;-1.70;94.40;;;;;;5071578;28;20809;-87
2021/01/10 08:38:56;;;;;;;121.90;62.65;;;-1.70;94.50;;;;;;5036619;28;20409;-86
2021/01/10 08:41:33;;;;;;;123.78;62.22;;;-1.60;94.60;;;;;;5037844;28;20417;-88
2021/01/10 08:44:23;;;;;;;126.00;62.15;;;-1.60;94.50;;;;;;5036728;28;20489;-84
2021/01/10 08:46:52;;;;;;;115.95;61.10;;;-1.60;94.60;;;;;;5037985;28;20809;-86
2021/01/10 08:49:23;;;;;;;116.95;60.80;;;-1.60;94.50;;;;;;5053244;28;20428;-85
2021/01/10 08:51:49;;;;;;;114.05;58.35;;;-1.60;94.40;;;;;;5037993;28;20421;-88
2021/01/10 08:54:28;;;;;;;116.38;60.42;;;-1.60;94.40;;;;;;5035775;28;20443;-88
2021/01/10 08:56:56;;;;;;;114.38;59.28;;;-1.60;94.50;;;;;;5055348;28;20402;-90
2021/01/10 08:59:34;;;;;;;111.90;59.40;;;-1.50;94.40;;;;;;5035125;28;20440;-90
2021/01/10 09:02:11;;;;;;;113.40;60.27;;;-1.50;94.30;;;;;;5055343;28;21273;-88
2021/01/10 09:04:42;;;;;;;102.53;57.22;;;-1.50;94.20;;;;;;5053126;28;20475;-91
2021/01/10 09:07:11;;;;;;;100.40;55.67;;;-1.50;94.10;;;;;;5055463;28;20455;-89
2021/01/10 09:09:50;;;;;;;101.95;55.60;;;-1.40;94.00;;;;;;5035268;28;20466;-86
2021/01/10 09:12:31;;;;;;;100.63;55.10;;;-1.40;93.90;;;;;;5053764;28;20533;-86
2021/01/10 09:15:08;;;;;;;101.50;56.53;;;-1.40;93.90;;;;;;5035487;28;20421;-89
2021/01/10 09:17:38;;;;;;;101.57;56.15;;;-1.30;93.90;;;;;;5037084;28;20463;-88
2021/01/10 09:20:17;;;;;;;98.32;54.63;;;-1.30;93.80;;;;;;5035962;28;20421;-88
2021/01/10 09:22:44;;;;;;;95.03;54.03;;;-1.30;93.60;;;;;;5033852;28;20484;-90
2021/01/10 09:25:16;;;;;;;99.78;55.88;;;-1.20;93.60;;;;;;5026092;28;20459;-90
2021/01/10 09:28:08;;;;;;;100.00;55.70;;;-1.20;93.20;;;;;;5036913;28;20420;-87
2021/01/10 09:30:40;;;;;;;100.72;56.33;;;-1.20;93.20;;;;;;5034657;28;20409;-88
2021/01/10 09:33:07;;;;;;;102.40;55.63;;;-1.30;93.30;;;;;;5037783;28;20445;-91
2021/01/10 09:35:46;;;;;;;99.15;55.13;;;-1.20;93.40;;;;;;5035170;28;20458;-90
2021/01/10 09:38:15;;;;;;;99.72;55.88;;;-1.20;93.40;;;;;;5070087;28;20448;-90
2021/01/10 09:41:05;;;;;;;98.72;55.22;;;-1.20;93.30;;;;;;5053236;28;20425;-91
2021/01/10 09:43:50;;;;;;;99.97;56.00;;;-1.20;93.20;;;;;;5037625;28;20495;-94
2021/01/10 09:46:34;;;;;;;100.82;55.53;;;-1.10;93.30;;;;;;5036927;28;20417;-93
2021/01/10 09:49:21;;;;;;;101.38;56.53;;;-1.10;93.30;;;;;;5038676;28;20448;-93
2021/01/10 09:51:55;;;;;;;98.82;55.70;;;-1.00;93.30;;;;;;5036053;28;20740;-91
2021/01/10 09:54:28;;;;;;;99.40;55.67;;;-1.00;93.20;;;;;;5038013;28;20406;-93
2021/01/10 09:56:59;;;;;;;99.82;55.72;;;-0.90;93.20;;;;;;5043974;28;20454;-92
2021/01/10 09:59:44;;;;;;;94.50;55.20;;;-0.80;93.30;;;;;;5057160;28;20404;-96
2021/01/10 10:02:24;;;;;;;94.10;53.37;;;-0.70;93.10;;;;;;5050517;28;20479;-94
2021/01/10 10:04:52;;;;;;;94.65;54.55;;;-0.60;92.70;;;;;;5037928;28;20755;-93
2021/01/10 10:07:33;;;;;;;95.38;54.63;;;-0.60;92.60;;;;;;5036432;28;20498;-94
2021/01/10 10:10:01;;;;;;;93.70;55.27;;;-0.60;92.60;;;;;;5037906;28;20477;-95
2021/01/10 10:12:27;;;;;;;89.93;54.40;;;-0.50;92.40;;;;;;5037993;28;20487;-95
2021/01/10 10:15:08;;;;;;;91.85;53.88;;;-0.40;92.50;;;;;;5038281;28;20475;-95
2021/01/10 10:17:36;;;;;;;91.30;53.40;;;-0.50;92.50;;;;;;5038070;28;20807;-95
2021/01/10 10:20:11;;;;;;;91.90;53.53;;;-0.40;92.20;;;;;;5037432;28;20782;-94
2021/01/10 10:22:38;;;;;;;93.15;52.10;;;-0.30;92.20;;;;;;5036935;28;20841;-93
2021/01/10 10:25:07;;;;;;;87.35;52.85;;;-0.30;92.00;;;;;;5037357;28;20414;-92
2021/01/10 10:27:35;;;;;;;89.45;52.72;;;-0.30;91.90;;;;;;5035882;28;20479;-91
2021/01/10 10:30:03;;;;;;;88.70;52.33;;;-0.20;91.80;;;;;;5034515;28;20462;-91
2021/01/10 10:32:30;;;;;;;84.30;50.33;;;-0.20;91.80;;;;;;5053679;28;20447;-91
2021/01/10 10:34:56;;;;;;;82.85;49.25;;;-0.20;91.80;;;;;;5051687;28;20433;-91
2021/01/10 10:37:25;;;;;;;79.00;48.20;;;-0.10;91.70;;;;;;5036418;28;20395;-92
2021/01/10 10:39:52;;;;;;;84.55;50.40;;;0.00;91.50;;;;;;5034135;28;20433;-92
2021/01/10 10:42:19;;;;;;;84.65;51.55;;;0.00;91.40;;;;;;5035874;28;20925;-91
2021/01/10 10:44:46;;;;;;;83.45;50.33;;;0.10;91.30;;;;;;5033825;28;20467;-92
2021/01/10 10:47:14;;;;;;;75.13;47.23;;;0.20;91.00;;;;;;5035462;28;20471;-91
2021/01/10 10:49:42;;;;;;;79.40;47.47;;;0.30;90.90;;;;;;5034142;28;20413;-92
2021/01/10 10:52:11;;;;;;;76.30;46.65;;;0.40;90.60;;;;;;5035769;28;20944;-88
2021/01/10 10:54:37;;;;;;;77.30;47.25;;;0.50;90.50;;;;;;5036537;28;20804;-88
2021/01/10 10:57:06;;;;;;;77.30;47.97;;;0.50;90.40;;;;;;5055328;28;20420;-88
2021/01/10 10:59:33;;;;;;;74.93;46.80;;;0.60;90.40;;;;;;5053093;28;20403;-88
2021/01/10 11:01:59;;;;;;;75.43;47.43;;;0.60;90.20;;;;;;5032860;28;20475;-88
2021/01/10 11:04:28;;;;;;;76.15;47.85;;;0.80;90.10;;;;;;5015998;28;20410;-88
2021/01/10 11:06:55;;;;;;;80.60;49.42;;;1.00;89.80;;;;;;5031727;28;20421;-88
2021/01/10 11:09:22;;;;;;;77.75;48.05;;;1.10;88.70;;;;;;5035639;28;20475;-87
2021/01/10 11:11:48;;;;;;;73.70;46.23;;;1.30;88.10;;;;;;5051184;28;20810;-87
2021/01/10 11:14:17;;;;;;;75.03;46.03;;;1.60;87.30;;;;;;5035697;28;20433;-87
2021/01/10 11:16:48;;;;;;;72.22;44.97;;;1.70;86.70;;;;;;5033543;28;20856;-88
2021/01/10 11:19:17;;;;;;;69.47;43.60;;;1.80;85.90;;;;;;5035223;28;20500;-88
2021/01/10 11:21:46;;;;;;;68.03;43.60;;;2.20;86.50;;;;;;5024906;28;20411;-88
2021/01/10 11:24:13;;;;;;;63.15;41.42;;;2.40;83.70;;;;;;5032798;28;20469;-88
2021/01/10 11:26:42;;;;;;;66.73;42.60;;;2.40;82.30;;;;;;5036804;28;20508;-88
2021/01/10 11:29:09;;;;;;;66.75;43.35;;;2.50;83.30;;;;;;5052190;28;20417;-89
2021/01/10 11:31:39;;;;;;;64.70;43.13;;;2.70;83.30;;;;;;5030664;28;20402;-89
2021/01/10 11:34:09;;;;;;;59.38;40.67;;;2.70;81.90;;;;;;5032481;28;20821;-88
2021/01/10 11:36:41;;;;;;;63.97;42.65;;;2.80;81.40;;;;;;5013896;28;20423;-89
2021/01/10 11:39:08;;;;;;;61.88;41.35;;;2.90;81.20;;;;;;5034978;28;20413;-89
2021/01/10 11:41:34;;;;;;;62.50;42.53;;;2.80;80.90;;;;;;5052686;28;20402;-89
2021/01/10 11:44:01;;;;;;;65.25;42.80;;;2.70;81.30;;;;;;5032676;28;20456;-90
2021/01/10 11:46:27;;;;;;;65.80;42.70;;;2.70;81.30;;;;;;5035116;28;20815;-89
2021/01/10 11:48:57;;;;;;;65.88;43.80;;;2.60;81.80;;;;;;5033061;28;20427;-88
2021/01/10 11:51:25;;;;;;;70.80;45.47;;;2.50;81.50;;;;;;5034686;28;20418;-89
2021/01/10 11:53:52;;;;;;;69.00;44.42;;;2.30;82.30;;;;;;5033077;28;20419;-89
2021/01/10 11:56:19;;;;;;;70.60;45.67;;;2.10;83.90;;;;;;5052205;28;20449;-89
2021/01/10 11:58:48;;;;;;;75.25;45.67;;;2.00;84.50;;;;;;5050682;28;20413;-89
2021/01/10 12:01:15;;;;;;;77.25;47.85;;;2.10;84.80;;;;;;5034734;28;20479;-89
2021/01/10 12:03:43;;;;;;;71.07;44.85;;;2.20;84.50;;;;;;5037190;28;20481;-90
2021/01/10 12:06:17;;;;;;;67.82;43.78;;;2.20;84.10;;;;;;5054455;28;20435;-90
2021/01/10 12:08:43;;;;;;;66.57;42.65;;;2.30;83.80;;;;;;5046266;28;20403;-90
2021/01/10 12:11:17;;;;;;;63.57;41.83;;;2.30;83.70;;;;;;5032326;28;20443;-90
2021/01/10 12:13:45;;;;;;;70.15;44.25;;;2.30;82.90;;;;;;5031596;28;20457;-89
2021/01/10 12:16:12;;;;;;;64.15;43.08;;;2.20;83.20;;;;;;5034398;28;20467;-90
2021/01/10 12:18:40;;;;;;;67.07;42.90;;;2.10;83.30;;;;;;5034538;28;20970;-89
2021/01/10 12:21:11;;;;;;;66.72;43.15;;;2.10;83.20;;;;;;5023027;28;20871;-89
2021/01/10 12:23:39;;;;;;;68.13;43.50;;;2.00;83.90;;;;;;5034176;28;20436;-90
2021/01/10 12:26:10;;;;;;;67.15;43.13;;;2.00;84.10;;;;;;5018331;28;20403;-89
2021/01/10 12:28:37;;;;;;;62.58;41.75;;;2.10;84.00;;;;;;5016807;28;20409;-89
2021/01/10 12:31:04;;;;;;;59.30;39.72;;;2.30;83.40;;;;;;5018660;28;20403;-89
2021/01/10 12:33:37;;;;;;;57.80;38.20;;;2.90;82.00;;;;;;5032256;28;20861;-95
2021/01/10 12:36:06;;;;;;;58.42;39.15;;;3.50;79.30;;;;;;5025029;28;20409;-93
2021/01/10 12:38:32;;;;;;;58.07;38.00;;;3.90;77.30;;;;;;5035322;28;20455;-93
2021/01/10 12:41:02;;;;;;;55.10;37.63;;;3.80;76.20;;;;;;5021536;28;20421;-93
2021/01/10 12:43:29;;;;;;;55.80;37.87;;;3.70;76.80;;;;;;4995856;28;20524;-94
2021/01/10 12:45:55;;;;;;;54.70;37.63;;;3.40;76.80;;;;;;4999075;28;20414;-94
2021/01/10 12:48:22;;;;;;;54.75;36.92;;;3.10;78.00;;;;;;5018900;28;20426;-93